createdAt,value
2018-07-13T00:00:03.477Z,99.90
2018-07-13T00:02:32.550Z,99.90
2018-07-13T00:05:01.642Z,99.90
2018-07-13T00:09:59.309Z,99.90
2018-07-13T00:12:28.208Z,99.90
2018-07-13T00:15:08.908Z,99.90
2018-07-13T00:17:37.910Z,99.90
2018-07-13T00:20:07.240Z,99.90
2018-07-13T00:22:36.101Z,99.90
2018-07-13T00:25:05.247Z,99.90
2018-07-13T00:27:34.433Z,99.90
2018-07-13T00:30:03.691Z,99.90
2018-07-13T00:32:32.725Z,99.90
2018-07-13T00:35:02.452Z,99.90
2018-07-13T00:37:31.633Z,99.90
2018-07-13T00:40:01.037Z,99.90
2018-07-13T00:42:30.025Z,99.90
2018-07-13T00:44:59.128Z,99.90
2018-07-13T00:47:29.083Z,99.90
2018-07-13T00:49:58.388Z,99.90
2018-07-13T00:52:27.437Z,99.90
2018-07-13T00:54:56.620Z,99.90
2018-07-13T00:57:25.856Z,99.90
2018-07-13T00:59:54.953Z,99.90
2018-07-13T01:02:24.124Z,99.90
2018-07-13T01:04:53.396Z,99.90
2018-07-13T01:07:23.193Z,99.90
2018-07-13T01:12:22.479Z,99.90
2018-07-13T01:14:51.811Z,99.90
2018-07-13T01:17:24.092Z,99.90
2018-07-13T01:19:53.445Z,99.90
2018-07-13T01:22:22.582Z,99.90
2018-07-13T01:24:51.762Z,99.90
2018-07-13T01:27:20.727Z,99.90
2018-07-13T01:29:49.674Z,99.90
2018-07-13T01:32:18.608Z,99.90
2018-07-13T01:34:47.552Z,99.90
2018-07-13T01:37:16.508Z,99.90
2018-07-13T01:39:45.516Z,99.90
2018-07-13T01:42:14.783Z,99.90
2018-07-13T01:44:44.174Z,99.90
2018-07-13T01:47:13.315Z,99.90
2018-07-13T01:49:42.558Z,99.90
2018-07-13T01:52:11.805Z,99.90
2018-07-13T01:54:41.572Z,99.90
2018-07-13T01:57:10.693Z,99.90
2018-07-13T01:59:39.818Z,99.90
2018-07-13T02:02:10.362Z,99.90
2018-07-13T02:04:40.276Z,99.90
2018-07-13T02:07:10.308Z,99.90
2018-07-13T02:09:39.393Z,99.90
2018-07-13T02:12:09.205Z,99.90
2018-07-13T02:14:38.707Z,99.90
2018-07-13T02:17:09.157Z,99.90
2018-07-13T02:19:38.326Z,99.90
2018-07-13T02:22:07.554Z,99.90
2018-07-13T02:24:38.089Z,99.90
2018-07-13T02:27:08.119Z,99.90
2018-07-13T02:29:37.939Z,99.90
2018-07-13T02:32:07.185Z,99.90
2018-07-13T02:34:36.581Z,99.90
2018-07-13T02:37:05.986Z,99.90
2018-07-13T02:39:35.243Z,99.90
2018-07-13T02:42:04.246Z,99.90
2018-07-13T02:44:33.323Z,99.90
2018-07-13T02:47:02.460Z,99.90
2018-07-13T02:49:31.656Z,99.90
2018-07-13T02:52:00.667Z,99.90
2018-07-13T02:54:29.666Z,99.90
2018-07-13T02:56:58.819Z,99.90
2018-07-13T02:59:28.013Z,99.90
2018-07-13T03:01:57.267Z,99.90
2018-07-13T03:04:26.614Z,99.90
2018-07-13T03:06:55.836Z,99.90
2018-07-13T03:09:25.088Z,99.90
2018-07-13T03:11:54.318Z,99.90
2018-07-13T03:14:24.417Z,99.90
2018-07-13T03:16:53.620Z,99.90
2018-07-13T03:19:22.779Z,99.90
2018-07-13T03:21:52.281Z,99.90
2018-07-13T03:24:21.522Z,99.90
2018-07-13T03:26:51.421Z,99.90
2018-07-13T03:29:20.738Z,99.90
2018-07-13T03:34:18.896Z,99.90
2018-07-13T03:36:48.672Z,99.90
2018-07-13T03:39:17.854Z,99.90
2018-07-13T03:41:47.791Z,99.90
2018-07-13T03:44:17.088Z,99.90
2018-07-13T03:46:47.166Z,99.90
2018-07-13T03:49:16.331Z,99.90
2018-07-13T03:51:45.931Z,99.90
2018-07-13T03:54:15.143Z,99.90
2018-07-13T03:56:44.123Z,99.90
2018-07-13T03:59:13.078Z,99.90
2018-07-13T04:01:42.015Z,99.90
2018-07-13T04:04:10.963Z,99.90
2018-07-13T04:06:39.927Z,99.90
2018-07-13T04:09:10.256Z,99.90
2018-07-13T04:11:39.493Z,99.90
2018-07-13T04:14:08.958Z,99.90
2018-07-13T04:16:38.319Z,99.90
2018-07-13T04:19:07.591Z,99.90
2018-07-13T04:21:36.901Z,99.90
2018-07-13T04:24:06.397Z,99.90
2018-07-13T04:26:35.824Z,99.90
2018-07-13T04:29:05.151Z,99.90
2018-07-13T04:31:34.304Z,99.90
2018-07-13T04:34:03.383Z,99.90
2018-07-13T04:36:32.584Z,99.90
2018-07-13T04:39:01.909Z,99.90
2018-07-13T04:41:31.473Z,99.90
2018-07-13T04:44:01.279Z,99.90
2018-07-13T04:46:30.520Z,99.90
2018-07-13T04:48:59.572Z,99.90
2018-07-13T04:51:28.970Z,99.90
2018-07-13T04:53:58.498Z,99.90
2018-07-13T04:56:27.771Z,99.90
2018-07-13T04:58:57.791Z,99.90
2018-07-13T05:01:26.988Z,99.90
2018-07-13T05:03:56.435Z,99.90
2018-07-13T05:06:25.750Z,99.90
2018-07-13T05:08:55.082Z,99.90
2018-07-13T05:11:24.190Z,99.90
2018-07-13T05:13:53.148Z,99.90
2018-07-13T05:16:22.228Z,99.90
2018-07-13T05:18:51.159Z,99.90
2018-07-13T05:21:20.279Z,99.90
2018-07-13T05:23:49.366Z,94.50
2018-07-13T05:26:18.506Z,89.60
2018-07-13T05:28:47.828Z,83.60
2018-07-13T05:31:17.165Z,75.50
2018-07-13T05:36:14.824Z,62.60
2018-07-13T05:38:44.104Z,60.30
2018-07-13T05:41:13.908Z,61.00
2018-07-13T05:43:43.313Z,57.20
2018-07-13T05:46:12.442Z,57.70
2018-07-13T05:48:41.837Z,60.00
2018-07-13T05:51:11.098Z,59.60
2018-07-13T05:53:40.546Z,52.50
2018-07-13T05:56:09.615Z,47.00
2018-07-13T05:58:38.789Z,41.00
2018-07-13T06:01:08.114Z,39.20
2018-07-13T06:03:37.148Z,33.60
2018-07-13T06:06:06.972Z,32.40
2018-07-13T06:08:36.471Z,30.10
2018-07-13T06:11:05.538Z,29.00
2018-07-13T06:13:34.558Z,27.40
2018-07-13T06:16:03.875Z,25.70
2018-07-13T06:18:32.790Z,26.40
2018-07-13T06:21:03.188Z,27.30
2018-07-13T06:23:33.424Z,27.00
2018-07-13T06:26:02.415Z,26.30
2018-07-13T06:28:31.493Z,27.10
2018-07-13T06:31:00.605Z,24.10
2018-07-13T06:33:29.539Z,25.70
2018-07-13T06:35:58.596Z,26.00
2018-07-13T06:38:27.682Z,24.10
2018-07-13T06:40:56.807Z,25.60
2018-07-13T06:43:26.114Z,27.00
2018-07-13T06:45:55.462Z,27.80
2018-07-13T06:48:25.278Z,30.60
2018-07-13T06:50:54.973Z,28.00
2018-07-13T06:53:24.442Z,25.60
2018-07-13T06:55:53.565Z,21.20
2018-07-13T06:58:33.820Z,23.30
2018-07-13T07:01:05.011Z,23.40
2018-07-13T07:03:36.323Z,22.60
2018-07-13T07:06:12.498Z,23.60
2018-07-13T07:08:44.415Z,22.40
2018-07-13T07:11:14.862Z,23.90
2018-07-13T07:16:14.567Z,22.30
2018-07-13T07:18:43.650Z,22.20
2018-07-13T07:21:12.880Z,21.80
2018-07-13T07:23:42.026Z,21.20
2018-07-13T07:26:11.512Z,21.70
2018-07-13T07:28:40.654Z,22.50
2018-07-13T07:31:09.956Z,22.00
2018-07-13T07:33:39.175Z,23.00
2018-07-13T07:36:08.435Z,22.90
2018-07-13T07:38:38.036Z,22.10
2018-07-13T07:41:07.920Z,24.10
2018-07-13T07:43:36.987Z,22.80
2018-07-13T07:46:05.982Z,21.90
2018-07-13T07:48:35.083Z,20.30
2018-07-13T07:51:04.172Z,19.50
2018-07-13T07:53:33.364Z,18.10
2018-07-13T07:56:04.372Z,17.00
2018-07-13T08:01:05.476Z,18.40
2018-07-13T08:03:34.918Z,16.10
2018-07-13T08:06:04.200Z,15.80
2018-07-13T08:08:33.508Z,15.00
2018-07-13T08:11:02.796Z,14.10
2018-07-13T08:13:31.815Z,17.90
2018-07-13T08:16:00.991Z,20.80
2018-07-13T08:18:30.204Z,25.00
2018-07-13T08:21:00.548Z,27.90
2018-07-13T08:23:29.914Z,30.20
2018-07-13T08:25:59.168Z,32.50
2018-07-13T08:28:28.805Z,32.60
2018-07-13T08:30:59.558Z,32.90
2018-07-13T08:33:28.836Z,34.40
2018-07-13T08:35:58.131Z,34.70
2018-07-13T08:38:27.836Z,35.40
2018-07-13T08:40:57.753Z,34.20
2018-07-13T08:43:27.155Z,36.50
2018-07-13T08:45:56.158Z,37.50
2018-07-13T08:48:25.345Z,37.20
2018-07-13T08:50:54.755Z,37.90
2018-07-13T08:55:53.550Z,39.10
2018-07-13T08:58:22.691Z,41.00
2018-07-13T09:00:51.764Z,41.80
2018-07-13T09:03:20.947Z,37.10
2018-07-13T09:05:49.978Z,34.10
2018-07-13T09:08:18.960Z,29.60
2018-07-13T09:10:48.011Z,25.70
2018-07-13T09:13:17.195Z,26.40
2018-07-13T09:15:46.596Z,27.60
2018-07-13T09:18:15.716Z,29.80
2018-07-13T09:20:44.875Z,31.90
2018-07-13T09:23:14.179Z,29.70
2018-07-13T09:25:43.482Z,26.20
2018-07-13T09:28:12.588Z,23.20
2018-07-13T09:33:10.555Z,19.60
2018-07-13T09:38:09.272Z,23.30
2018-07-13T09:40:39.258Z,23.30
2018-07-13T09:43:08.774Z,24.30
2018-07-13T09:45:37.965Z,25.40
2018-07-13T09:48:07.200Z,29.60
2018-07-13T09:50:36.260Z,34.90
2018-07-13T09:53:05.963Z,39.50
2018-07-13T09:55:34.902Z,42.30
2018-07-13T09:58:03.876Z,43.40
2018-07-13T10:00:38.220Z,44.50
2018-07-13T10:03:07.103Z,44.20
2018-07-13T10:05:36.442Z,46.70
2018-07-13T10:08:05.854Z,44.80
2018-07-13T10:10:35.037Z,40.00
2018-07-13T10:13:03.980Z,41.30
2018-07-13T10:15:32.980Z,41.50
2018-07-13T10:18:01.938Z,39.00
2018-07-13T10:20:31.032Z,38.90
2018-07-13T10:23:00.075Z,38.90
2018-07-13T10:25:30.371Z,36.40
2018-07-13T10:27:59.465Z,34.40
2018-07-13T10:30:28.838Z,37.50
2018-07-13T10:32:58.147Z,35.50
2018-07-13T10:35:27.286Z,41.20
2018-07-13T10:37:56.336Z,42.90
2018-07-13T10:40:25.453Z,39.90
2018-07-13T10:42:54.389Z,42.30
2018-07-13T10:45:23.848Z,41.70
2018-07-13T10:47:52.878Z,42.30
2018-07-13T10:50:21.855Z,46.40
2018-07-13T10:52:50.818Z,59.00
2018-07-13T10:55:19.761Z,61.80
2018-07-13T10:57:49.036Z,58.20
2018-07-13T11:00:18.248Z,55.40
2018-07-13T11:02:47.268Z,50.10
2018-07-13T11:05:16.458Z,45.30
2018-07-13T11:07:45.430Z,45.60
2018-07-13T11:10:14.400Z,47.10
2018-07-13T11:12:43.634Z,49.10
2018-07-13T11:15:12.887Z,45.30
2018-07-13T11:17:42.028Z,46.00
2018-07-13T11:20:11.044Z,42.60
2018-07-13T11:22:39.980Z,39.90
2018-07-13T11:25:08.972Z,37.90
2018-07-13T11:27:37.895Z,41.40
2018-07-13T11:30:06.858Z,37.30
2018-07-13T11:32:35.830Z,36.50
2018-07-13T11:35:04.870Z,39.00
2018-07-13T11:37:34.115Z,42.10
2018-07-13T11:40:03.082Z,44.30
2018-07-13T11:42:32.011Z,42.20
2018-07-13T11:45:00.987Z,43.00
2018-07-13T11:47:30.735Z,44.00
2018-07-13T11:49:59.666Z,45.50
2018-07-13T11:52:28.774Z,44.30
2018-07-13T11:54:57.712Z,44.90
2018-07-13T11:57:26.715Z,45.40
2018-07-13T11:59:55.775Z,46.60
2018-07-13T12:02:25.038Z,47.00
2018-07-13T12:04:54.141Z,47.60
2018-07-13T12:07:23.295Z,50.30
2018-07-13T12:09:52.636Z,52.50
2018-07-13T12:12:21.679Z,80.50
2018-07-13T12:14:50.720Z,99.90
2018-07-13T12:17:19.964Z,99.90
2018-07-13T12:19:49.110Z,99.90
2018-07-13T12:22:18.048Z,99.90
2018-07-13T12:24:47.127Z,99.90
2018-07-13T12:29:45.092Z,99.90
2018-07-13T12:32:14.367Z,99.90
2018-07-13T12:34:43.310Z,99.90
2018-07-13T12:37:12.276Z,99.90
2018-07-13T12:39:43.554Z,99.90
2018-07-13T12:42:12.788Z,99.90
2018-07-13T12:44:41.798Z,99.90
2018-07-13T12:47:10.776Z,99.90
2018-07-13T12:49:39.687Z,99.90
2018-07-13T12:52:08.656Z,99.90
2018-07-13T12:54:37.915Z,99.90
2018-07-13T12:57:07.148Z,99.90
2018-07-13T12:59:36.327Z,99.90
2018-07-13T13:02:05.339Z,99.90
2018-07-13T13:04:34.270Z,99.90
2018-07-13T13:07:03.222Z,99.30
2018-07-13T13:09:32.236Z,92.30
2018-07-13T13:12:01.199Z,92.90
2018-07-13T13:14:30.153Z,85.70
2018-07-13T13:16:59.270Z,88.00
2018-07-13T13:19:28.225Z,74.10
2018-07-13T13:21:57.481Z,68.60
2018-07-13T13:24:26.555Z,78.60
2018-07-13T13:26:55.643Z,64.80
2018-07-13T13:29:24.735Z,71.80
2018-07-13T13:34:22.306Z,58.20
2018-07-13T13:36:51.289Z,59.00
2018-07-13T13:39:20.426Z,59.70
2018-07-13T13:41:49.444Z,49.70
2018-07-13T13:44:18.476Z,47.10
2018-07-13T13:46:47.563Z,44.90
2018-07-13T13:49:16.600Z,45.70
2018-07-13T13:51:45.555Z,44.70
2018-07-13T13:54:15.423Z,45.00
2018-07-13T13:56:44.395Z,45.70
2018-07-13T13:59:13.323Z,41.00
2018-07-13T14:01:42.315Z,43.60
2018-07-13T14:04:11.930Z,46.50
2018-07-13T14:06:40.890Z,46.20
2018-07-13T14:09:10.555Z,45.30
2018-07-13T14:11:40.280Z,44.50
2018-07-13T14:14:09.211Z,42.90
2018-07-13T14:16:38.319Z,43.40
2018-07-13T14:19:07.321Z,46.60
2018-07-13T14:21:36.296Z,47.70
2018-07-13T14:24:05.322Z,49.20
2018-07-13T14:26:34.300Z,46.90
2018-07-13T14:29:03.266Z,45.50
2018-07-13T14:31:32.247Z,47.00
2018-07-13T14:34:01.267Z,45.40
2018-07-13T14:36:30.244Z,49.20
2018-07-13T14:38:59.202Z,44.70
2018-07-13T14:41:28.501Z,57.80
2018-07-13T14:43:57.503Z,77.90
2018-07-13T14:46:26.628Z,99.90
2018-07-13T14:48:55.734Z,99.90
2018-07-13T14:51:24.906Z,99.90
2018-07-13T14:53:53.999Z,99.90
2018-07-13T14:56:23.298Z,99.90
2018-07-13T14:58:52.497Z,97.50
2018-07-13T15:01:21.705Z,84.60
2018-07-13T15:03:50.729Z,94.50
2018-07-13T15:06:20.274Z,93.00
2018-07-13T15:08:49.120Z,94.20
2018-07-13T15:11:18.068Z,99.90
2018-07-13T15:13:47.019Z,99.90
2018-07-13T15:16:15.975Z,99.90
2018-07-13T15:18:44.904Z,99.90
2018-07-13T15:21:13.957Z,99.90
2018-07-13T15:23:42.901Z,99.90
2018-07-13T15:26:11.854Z,99.90
2018-07-13T15:28:40.873Z,99.90
2018-07-13T15:31:09.830Z,99.90
2018-07-13T15:33:38.899Z,99.90
2018-07-13T15:36:07.878Z,99.90
2018-07-13T15:38:36.967Z,99.90
2018-07-13T15:41:05.966Z,99.90
2018-07-13T15:43:34.959Z,99.90
2018-07-13T15:46:03.951Z,98.30
2018-07-13T15:48:33.224Z,99.90
2018-07-13T15:51:02.523Z,99.90
2018-07-13T15:53:32.417Z,99.60
2018-07-13T15:56:01.428Z,99.90
2018-07-13T15:58:30.617Z,99.90
2018-07-13T16:00:59.818Z,99.90
2018-07-13T16:03:28.835Z,99.90
2018-07-13T16:08:26.746Z,99.90
2018-07-13T16:10:55.920Z,99.90
2018-07-13T16:13:24.983Z,99.90
2018-07-13T16:15:53.923Z,99.90
2018-07-13T16:18:23.009Z,99.90
2018-07-13T16:20:52.182Z,99.90
2018-07-13T16:23:21.116Z,99.90
2018-07-13T16:25:50.134Z,99.90
2018-07-13T16:28:19.117Z,99.90
2018-07-13T16:30:48.921Z,99.90
2018-07-13T16:33:17.967Z,99.90
2018-07-13T16:35:46.892Z,99.90
2018-07-13T16:38:16.032Z,99.90
2018-07-13T16:40:45.224Z,99.90
2018-07-13T16:43:14.192Z,99.90
2018-07-13T16:45:43.159Z,99.90
2018-07-13T16:48:12.483Z,99.90
2018-07-13T16:50:41.873Z,99.90
2018-07-13T16:53:10.883Z,99.90
2018-07-13T16:55:40.075Z,99.90
2018-07-13T16:58:10.187Z,99.90
2018-07-13T17:00:39.457Z,99.90
2018-07-13T17:03:08.584Z,99.90
2018-07-13T17:08:06.748Z,98.00
2018-07-13T17:10:35.714Z,97.50
2018-07-13T17:13:04.950Z,99.90
2018-07-13T17:15:34.127Z,99.90
2018-07-13T17:18:03.462Z,98.00
2018-07-13T17:20:32.601Z,94.70
2018-07-13T17:23:01.945Z,95.90
2018-07-13T17:25:31.258Z,97.00
2018-07-13T17:30:30.200Z,97.40
2018-07-13T17:32:59.460Z,95.90
2018-07-13T17:35:28.633Z,93.20
2018-07-13T17:37:58.219Z,95.20
2018-07-13T17:40:27.159Z,96.20
2018-07-13T17:42:56.120Z,95.30
2018-07-13T17:45:25.088Z,93.60
2018-07-13T17:47:54.074Z,95.80
2018-07-13T17:50:22.985Z,96.70
2018-07-13T17:52:52.489Z,99.60
2018-07-13T17:55:22.549Z,99.90
2018-07-13T17:57:51.726Z,99.90
2018-07-13T18:00:20.670Z,99.90
2018-07-13T18:02:49.883Z,99.90
2018-07-13T18:05:19.519Z,99.90
2018-07-13T18:10:17.982Z,99.90
2018-07-13T18:12:47.257Z,99.90
2018-07-13T18:15:16.509Z,99.90
2018-07-13T18:17:46.015Z,99.90
2018-07-13T18:20:15.168Z,99.90
2018-07-13T18:22:44.468Z,99.90
2018-07-13T18:25:13.487Z,99.90
2018-07-13T18:27:42.424Z,99.90
2018-07-13T18:30:11.447Z,99.90
2018-07-13T18:32:40.738Z,99.90
2018-07-13T18:35:09.856Z,99.90
2018-07-13T18:37:39.224Z,99.90
2018-07-13T18:40:08.572Z,99.90
2018-07-13T18:42:38.268Z,99.90
2018-07-13T18:45:08.032Z,99.90
2018-07-13T18:47:37.617Z,99.90
2018-07-13T18:50:06.952Z,99.90
2018-07-13T18:52:35.913Z,99.90
2018-07-13T18:55:04.998Z,99.90
2018-07-13T18:57:33.955Z,99.90
2018-07-13T19:00:02.885Z,99.90
2018-07-13T19:02:31.855Z,99.90
2018-07-13T19:05:00.789Z,99.90
2018-07-13T19:07:29.930Z,99.90
2018-07-13T19:09:58.851Z,99.90
2018-07-13T19:12:27.934Z,99.90
2018-07-13T19:14:57.162Z,99.90
2018-07-13T19:17:26.158Z,99.90
2018-07-13T19:19:55.245Z,99.90
2018-07-13T19:22:24.512Z,99.90
2018-07-13T19:24:54.657Z,99.90
2018-07-13T19:27:23.717Z,99.90
2018-07-13T19:29:52.953Z,99.90
2018-07-13T19:32:22.250Z,99.90
2018-07-13T19:34:51.551Z,99.90
2018-07-13T19:37:20.777Z,99.90
2018-07-13T19:39:50.119Z,99.90
2018-07-13T19:42:20.057Z,99.90
2018-07-13T19:44:49.242Z,99.90
2018-07-13T19:47:18.474Z,99.90
2018-07-13T19:49:47.745Z,99.90
2018-07-13T19:52:17.999Z,99.90
2018-07-13T19:54:47.259Z,99.90
2018-07-13T19:57:16.356Z,99.90
2018-07-13T19:59:45.761Z,99.90
2018-07-13T20:02:15.441Z,99.90
2018-07-13T20:04:44.651Z,99.90
2018-07-13T20:07:13.632Z,99.90
2018-07-13T20:09:42.586Z,99.90
2018-07-13T20:12:11.640Z,99.90
2018-07-13T20:14:40.593Z,99.90
2018-07-13T20:17:09.605Z,99.90
2018-07-13T20:19:38.587Z,99.90
2018-07-13T20:22:07.696Z,99.90
2018-07-13T20:24:36.887Z,99.90
2018-07-13T20:27:06.088Z,99.90
2018-07-13T20:29:35.663Z,99.90
2018-07-13T20:32:05.499Z,99.90
2018-07-13T20:34:34.956Z,99.90
2018-07-13T20:37:04.813Z,99.90
2018-07-13T20:39:34.036Z,99.90
2018-07-13T20:42:03.101Z,99.90
2018-07-13T20:44:32.293Z,99.90
2018-07-13T20:47:01.590Z,99.90
2018-07-13T20:49:31.098Z,99.90
2018-07-13T20:52:00.615Z,99.90
2018-07-13T20:56:58.643Z,99.90
2018-07-13T20:59:27.995Z,99.90
2018-07-13T21:01:57.211Z,99.90
2018-07-13T21:04:26.469Z,99.90
2018-07-13T21:06:55.471Z,99.90
2018-07-13T21:09:24.586Z,99.90
2018-07-13T21:11:53.853Z,99.90
2018-07-13T21:14:23.412Z,99.90
2018-07-13T21:16:52.660Z,99.90
2018-07-13T21:19:21.875Z,99.90
2018-07-13T21:21:51.593Z,99.90
2018-07-13T21:24:20.541Z,99.90
2018-07-13T21:26:49.533Z,99.90
2018-07-13T21:29:23.856Z,99.90
2018-07-13T21:31:52.746Z,99.90
2018-07-13T21:34:21.720Z,99.90
2018-07-13T21:36:50.707Z,99.90
2018-07-13T21:39:20.004Z,99.90
2018-07-13T21:41:49.523Z,99.90
2018-07-13T21:44:19.555Z,99.90
2018-07-13T21:46:48.801Z,99.90
2018-07-13T21:49:18.134Z,99.90
2018-07-13T21:51:47.332Z,99.90
2018-07-13T21:54:16.856Z,99.90
2018-07-13T21:56:46.823Z,99.90
2018-07-13T21:59:16.881Z,99.90
2018-07-13T22:01:46.623Z,99.90
2018-07-13T22:04:16.688Z,99.90
2018-07-13T22:06:45.908Z,99.90
2018-07-13T22:09:15.709Z,99.90
2018-07-13T22:11:46.224Z,99.90
2018-07-13T22:14:15.989Z,99.90
2018-07-13T22:16:46.043Z,99.90
2018-07-13T22:19:15.181Z,99.90
2018-07-13T22:21:44.164Z,99.90
2018-07-13T22:24:13.380Z,99.90
2018-07-13T22:26:43.032Z,99.90
2018-07-13T22:29:12.320Z,99.90
2018-07-13T22:31:41.472Z,99.90
2018-07-13T22:34:10.681Z,99.90
2018-07-13T22:36:39.913Z,99.90
2018-07-13T22:39:08.851Z,99.90
2018-07-13T22:41:37.823Z,99.90
2018-07-13T22:44:06.786Z,99.90
2018-07-13T22:46:35.732Z,99.90
2018-07-13T22:49:04.773Z,99.90
2018-07-13T22:51:33.707Z,99.90
2018-07-13T22:54:04.998Z,99.90
2018-07-13T22:56:34.591Z,99.90
2018-07-13T22:59:06.460Z,99.90
2018-07-13T23:01:36.248Z,99.90
2018-07-13T23:04:08.272Z,99.90
2018-07-13T23:06:38.833Z,99.90
2018-07-13T23:09:08.243Z,99.90
2018-07-13T23:11:37.454Z,99.90
2018-07-13T23:14:06.747Z,99.90
2018-07-13T23:16:36.049Z,99.90
2018-07-13T23:19:05.352Z,99.90
2018-07-13T23:21:35.363Z,99.90
2018-07-13T23:24:04.660Z,99.90
2018-07-13T23:26:34.321Z,99.90
2018-07-13T23:29:03.603Z,99.90
2018-07-13T23:31:32.872Z,99.90
2018-07-13T23:34:02.108Z,99.90
2018-07-13T23:36:31.983Z,99.90
2018-07-13T23:39:01.275Z,99.90
2018-07-13T23:41:30.460Z,99.90
2018-07-13T23:43:59.646Z,99.90
2018-07-13T23:46:28.848Z,99.90
2018-07-13T23:48:58.094Z,99.90
2018-07-13T23:51:27.341Z,99.90
2018-07-13T23:53:56.313Z,99.90
2018-07-13T23:56:25.322Z,99.90
2018-07-13T23:58:54.245Z,99.90
